This is the latest recevied weather packets stored in our database for station/object N3PB. If no packets are shown the sender has not sent any weather packets the latest 10 day(s).
| Time | Temp. | Humidity | Pressure | Rain* | Wind** | Luminosity | Snow |
|---|---|---|---|---|---|---|---|
| 1778386899 | 11.67° C | 79% | 1014.7 hPa | 0 mm | - | - | - |
| 1778386599 | 11.67° C | 79% | 1014.5 hPa | 0 mm | - | - | - |
| 1778386002 | 12.22° C | 79% | 1014.5 hPa | 0 mm | - | - | - |
| 1778385402 | 12.22° C | 77% | 1014.5 hPa | 0 mm | - | - | - |
| 1778384502 | 12.78° C | 76% | 1014.4 hPa | 0 mm | - | - | - |
| 1778383902 | 13.33° C | 75% | 1014.5 hPa | 0 mm | - | - | - |
| 1778383602 | 13.33° C | 75% | 1014.5 hPa | 0 mm | - | - | - |
| 1778382702 | 13.33° C | 75% | 1014.4 hPa | 0 mm | - | - | - |
| 1778381505 | 13.33° C | 76% | 1014.6 hPa | 0 mm | - | - | - |
| 1778380902 | 13.33° C | 75% | 1014.5 hPa | 0 mm | - | - | - |
| 1778378799 | 13.33° C | 74% | 1014.1 hPa | 0 mm | - | - | - |
| 1778378199 | 13.89° C | 73% | 1014 hPa | 0 mm | - | - | - |
| 1778376999 | 13.89° C | 72% | 1013.6 hPa | 0 mm | - | - | - |
| 1778376702 | 13.89° C | 71% | 1013.5 hPa | 0 mm | - | - | - |
| 1778374902 | 14.44° C | 70% | 1013 hPa | 0 mm | - | - | - |
| 1778374299 | 15° C | 69% | 1012.8 hPa | 0 mm | - | - | - |
| 1778373099 | 16.11° C | 66% | 1012.7 hPa | 0 mm | - | - | - |
| 1778372202 | 16.67° C | 63% | 1012.5 hPa | 0 mm | - | - | - |
| 1778370702 | 18.33° C | 57% | 1011.9 hPa | 0 mm | - | - | - |
| 1778370399 | 18.33° C | 56% | 1011.9 hPa | 0 mm | - | - | - |
| 1778369802 | 18.89° C | 56% | 1011.8 hPa | 0 mm | - | - | - |
| 1778369199 | 19.44° C | 54% | 1011.5 hPa | 0 mm | - | - | - |
| 1778368899 | 19.44° C | 53% | 1011.5 hPa | 0 mm | - | - | - |
| 1778367699 | 20.56° C | 50% | 1011.3 hPa | 0 mm | - | - | - |
| 1778365899 | 21.67° C | 49% | 1011.2 hPa | 0 mm | - | - | - |
* Rain latest hour (hover to see other rain measurements)
** Current wind speed in m/s (hover to see current wind gust speed)